Time;durP1;ratioP1;P1;durP2;ratioP2;P2;SDS_P1;SDS_P2;PMS_P1;PMS_P2;Temp;Humidity;BMP_temperature;BMP_pressure;BME280_temperature;BME280_humidity;BME280_pressure;Samples;Min_cycle;Max_cycle;Signal;HPM_P1;HPM_P2
2023/01/29 00:01:06;;;;;;;11.02;8.35;;;4.30;99.90;;;;;;5093306;28;20035;-67
2023/01/29 00:03:33;;;;;;;13.13;8.18;;;4.30;99.90;;;;;;5111357;28;20054;-65
2023/01/29 00:05:59;;;;;;;13.77;8.45;;;4.30;99.90;;;;;;5111693;28;20040;-67
2023/01/29 00:08:26;;;;;;;11.20;7.55;;;4.30;99.90;;;;;;5092732;28;20410;-66
2023/01/29 00:10:52;;;;;;;11.90;7.95;;;4.40;99.90;;;;;;5093506;28;20048;-66
2023/01/29 00:13:18;;;;;;;13.95;7.95;;;4.30;99.90;;;;;;5111480;28;20222;-67
2023/01/29 00:15:54;;;;;;;11.80;8.10;;;4.30;99.90;;;;;;5111777;28;20051;-65
2023/01/29 00:18:20;;;;;;;17.25;8.32;;;4.30;99.90;;;;;;5093245;28;20055;-65
2023/01/29 00:20:46;;;;;;;13.43;8.27;;;4.30;99.90;;;;;;5111952;28;20042;-65
2023/01/29 00:23:11;;;;;;;11.30;7.80;;;4.30;99.90;;;;;;5093486;28;20047;-65
2023/01/29 00:25:37;;;;;;;12.18;8.00;;;4.30;99.90;;;;;;5077180;28;20166;-64
2023/01/29 00:28:03;;;;;;;11.95;8.70;;;4.30;99.90;;;;;;5112047;28;20048;-64
2023/01/29 00:30:29;;;;;;;12.90;8.60;;;4.30;99.90;;;;;;5111602;28;20544;-65
2023/01/29 00:32:54;;;;;;;14.52;9.05;;;4.20;99.90;;;;;;5111902;28;20046;-65
2023/01/29 00:35:20;;;;;;;14.52;9.95;;;4.30;99.90;;;;;;5111579;28;20044;-65
2023/01/29 00:37:46;;;;;;;14.60;8.70;;;4.30;99.90;;;;;;5111922;28;20044;-65
2023/01/29 00:40:12;;;;;;;14.02;9.20;;;4.30;99.90;;;;;;5111751;28;20043;-67
2023/01/29 00:45:22;;;;;;;12.30;9.35;;;4.30;99.90;;;;;;5118116;28;20087;-64
2023/01/29 00:47:48;;;;;;;14.85;10.07;;;4.50;99.90;;;;;;5118513;28;20102;-64
2023/01/29 00:50:13;;;;;;;17.98;10.05;;;4.30;99.90;;;;;;5118204;28;20147;-66
2023/01/29 00:52:39;;;;;;;14.85;9.27;;;4.30;99.90;;;;;;5118895;28;20051;-64
2023/01/29 00:55:06;;;;;;;14.65;8.93;;;4.30;99.90;;;;;;5083694;28;20392;-65
2023/01/29 00:57:33;;;;;;;16.63;9.82;;;4.30;99.90;;;;;;5118305;28;20108;-64
2023/01/29 01:00:00;;;;;;;15.90;9.73;;;4.30;99.90;;;;;;5118687;28;20134;-65
2023/01/29 01:05:16;;;;;;;15.90;10.20;;;4.30;99.90;;;;;;5118653;28;20047;-64
2023/01/29 01:07:49;;;;;;;14.70;9.43;;;4.30;99.90;;;;;;5118602;28;20108;-64
2023/01/29 01:10:24;;;;;;;14.50;9.82;;;4.30;99.90;;;;;;5118577;28;20492;-67
2023/01/29 01:13:04;;;;;;;13.75;9.23;;;4.30;99.90;;;;;;5118832;28;20047;-64
2023/01/29 01:15:36;;;;;;;15.30;9.85;;;4.30;99.90;;;;;;5117979;28;20043;-64
2023/01/29 01:18:03;;;;;;;14.15;9.57;;;4.30;99.90;;;;;;5118566;28;20446;-64
2023/01/29 01:20:31;;;;;;;14.10;10.07;;;4.30;99.90;;;;;;5117914;28;20524;-64
2023/01/29 01:22:57;;;;;;;16.80;10.43;;;4.30;99.90;;;;;;5118298;28;20214;-64
2023/01/29 01:25:24;;;;;;;14.95;9.63;;;4.30;99.90;;;;;;5118027;28;20063;-64
2023/01/29 01:27:53;;;;;;;17.02;10.35;;;4.30;99.90;;;;;;5118375;28;20049;-65
2023/01/29 01:30:19;;;;;;;14.98;10.30;;;4.20;99.90;;;;;;5099928;28;20032;-67
2023/01/29 01:32:45;;;;;;;16.08;11.05;;;4.20;99.90;;;;;;5118269;28;20393;-64
2023/01/29 01:35:13;;;;;;;17.83;11.20;;;4.20;99.90;;;;;;5118039;28;20040;-65
2023/01/29 01:37:40;;;;;;;15.15;10.30;;;4.30;99.90;;;;;;5117893;28;20099;-64
2023/01/29 01:40:11;;;;;;;15.93;10.48;;;4.30;99.90;;;;;;5117856;28;20489;-64
2023/01/29 01:42:38;;;;;;;17.90;10.93;;;4.30;99.90;;;;;;5117894;28;20404;-64
2023/01/29 01:45:06;;;;;;;17.52;10.90;;;4.30;99.90;;;;;;5118189;28;20051;-64
2023/01/29 01:47:35;;;;;;;16.90;11.10;;;4.30;99.90;;;;;;5117501;28;20116;-64
2023/01/29 01:50:24;;;;;;;15.65;11.23;;;4.30;99.90;;;;;;5118181;28;20056;-64
2023/01/29 01:52:56;;;;;;;14.85;11.48;;;4.30;99.90;;;;;;5117396;28;20059;-65
2023/01/29 01:55:26;;;;;;;18.17;11.10;;;4.30;99.90;;;;;;5115831;28;20051;-66
2023/01/29 01:57:58;;;;;;;17.92;11.75;;;4.30;99.90;;;;;;5114683;28;20144;-64
2023/01/29 02:00:25;;;;;;;25.02;11.93;;;4.20;99.90;;;;;;5114429;28;20473;-66
2023/01/29 02:11:25;;;;;;;17.45;11.38;;;4.30;99.90;;;;;;5114318;28;20434;-66
2023/01/29 02:13:52;;;;;;;14.80;11.95;;;4.30;99.90;;;;;;5114077;28;20040;-64
2023/01/29 02:16:19;;;;;;;17.30;11.77;;;4.30;99.90;;;;;;5114461;28;20168;-64
2023/01/29 02:18:46;;;;;;;16.88;12.02;;;4.30;99.90;;;;;;5113569;28;20110;-64
2023/01/29 02:21:49;;;;;;;18.00;11.45;;;4.30;99.90;;;;;;5114273;28;20036;-64
2023/01/29 02:24:35;;;;;;;17.80;13.23;;;4.30;99.90;;;;;;5040726;28;20526;-64
2023/01/29 02:27:04;;;;;;;18.10;12.85;;;4.30;99.90;;;;;;5114096;28;20135;-64
2023/01/29 02:29:53;;;;;;;17.25;12.75;;;4.30;99.90;;;;;;5112695;28;20059;-64
2023/01/29 02:32:22;;;;;;;19.70;13.57;;;4.30;99.90;;;;;;5114358;28;20075;-66
2023/01/29 02:35:28;;;;;;;25.02;14.55;;;4.30;99.90;;;;;;5113694;28;20484;-65
2023/01/29 02:38:26;;;;;;;21.85;14.48;;;4.40;99.90;;;;;;5085094;28;20059;-64
2023/01/29 02:41:03;;;;;;;19.70;14.80;;;4.30;99.90;;;;;;5113669;28;20051;-67
2023/01/29 02:43:43;;;;;;;23.92;14.93;;;4.30;99.90;;;;;;5113646;28;20500;-67
2023/01/29 02:46:28;;;;;;;20.50;14.40;;;4.30;99.90;;;;;;5095901;28;20366;-64
2023/01/29 02:49:00;;;;;;;20.95;14.85;;;4.30;99.90;;;;;;5113027;28;20134;-65
2023/01/29 02:51:40;;;;;;;24.85;15.35;;;4.30;99.90;;;;;;5113798;28;20043;-64
2023/01/29 02:54:22;;;;;;;21.42;15.60;;;4.30;99.90;;;;;;5113972;28;20083;-65
2023/01/29 02:56:56;;;;;;;21.23;14.90;;;4.30;99.90;;;;;;5095393;28;20055;-65
2023/01/29 02:59:41;;;;;;;22.17;15.13;;;4.40;99.90;;;;;;5095700;28;20465;-65
2023/01/29 03:02:09;;;;;;;;;;;4.30;99.90;;;;;;5114127;28;20503;-64
2023/01/29 03:04:42;;;;;;;23.70;15.07;;;4.20;99.90;;;;;;5113204;28;19920;-66
2023/01/29 03:07:39;;;;;;;20.50;15.05;;;4.30;99.90;;;;;;5113450;28;20047;-67
2023/01/29 03:10:08;;;;;;;22.35;14.60;;;4.20;99.90;;;;;;5113207;28;20054;-64
2023/01/29 03:12:37;;;;;;;23.13;16.30;;;4.20;99.90;;;;;;5113039;28;20389;-67
2023/01/29 03:15:23;;;;;;;26.77;15.82;;;4.50;99.90;;;;;;5113447;28;20507;-64
2023/01/29 03:18:09;;;;;;;22.15;15.90;;;4.30;99.90;;;;;;5112593;28;20141;-64
2023/01/29 03:20:46;;;;;;;23.35;15.93;;;4.20;99.90;;;;;;5112711;28;20055;-65
2023/01/29 03:23:22;;;;;;;22.10;15.75;;;4.20;99.90;;;;;;5113389;28;20039;-64
2023/01/29 03:34:15;;;;;;;23.00;17.35;;;4.30;99.90;;;;;;5113053;28;20497;-64
2023/01/29 03:36:54;;;;;;;23.77;17.35;;;4.20;99.90;;;;;;5112254;28;20508;-64
2023/01/29 03:39:21;;;;;;;24.05;17.30;;;4.20;99.90;;;;;;5113049;28;20047;-64
2023/01/29 03:42:08;;;;;;;26.80;18.60;;;4.20;99.90;;;;;;5111733;28;20493;-64
2023/01/29 03:45:01;;;;;;;28.30;20.27;;;4.20;99.90;;;;;;5112766;28;20051;-64
2023/01/29 03:47:29;;;;;;;26.90;19.30;;;4.10;99.90;;;;;;5113131;28;20106;-63
2023/01/29 03:50:11;;;;;;;31.27;23.10;;;4.10;99.90;;;;;;5111874;28;20159;-63
2023/01/29 03:52:59;;;;;;;29.20;22.77;;;4.10;99.90;;;;;;5112436;28;20043;-67
2023/01/29 03:55:40;;;;;;;31.70;22.80;;;4.10;99.90;;;;;;5112707;28;20047;-63
2023/01/29 03:58:15;;;;;;;29.17;23.27;;;4.10;99.90;;;;;;5112658;28;20401;-64
2023/01/29 04:00:53;;;;;;;33.67;23.33;;;4.20;99.90;;;;;;5112119;28;20047;-64
2023/01/29 04:03:40;;;;;;;35.03;23.88;;;4.10;99.90;;;;;;5112472;28;20039;-64
2023/01/29 04:06:17;;;;;;;35.50;25.40;;;4.30;99.90;;;;;;5112299;28;20481;-63
2023/01/29 04:08:51;;;;;;;33.05;24.98;;;4.10;99.90;;;;;;5111809;28;20510;-64
2023/01/29 04:11:21;;;;;;;35.42;24.40;;;4.10;99.90;;;;;;5112437;28;20122;-64
2023/01/29 04:13:47;;;;;;;33.42;24.23;;;4.10;99.90;;;;;;5111569;28;20047;-63
2023/01/29 04:16:26;;;;;;;35.75;24.05;;;4.20;99.90;;;;;;5077256;28;20093;-64
2023/01/29 04:18:53;;;;;;;32.70;24.05;;;4.10;99.90;;;;;;5111349;28;20050;-64
2023/01/29 04:21:19;;;;;;;34.42;24.10;;;4.10;99.90;;;;;;5112157;28;20540;-64
2023/01/29 04:23:45;;;;;;;33.47;24.73;;;4.10;99.90;;;;;;5093578;28;20090;-64
2023/01/29 04:26:26;;;;;;;34.83;23.88;;;4.10;99.90;;;;;;5112102;28;20079;-64
2023/01/29 04:29:01;;;;;;;31.02;23.75;;;4.10;99.90;;;;;;5111791;28;20043;-64
2023/01/29 04:31:33;;;;;;;31.48;23.08;;;4.10;99.90;;;;;;5112134;28;20126;-64
2023/01/29 04:34:27;;;;;;;34.95;23.67;;;4.20;99.90;;;;;;5111736;28;20048;-64
2023/01/29 04:37:12;;;;;;;31.67;23.00;;;4.20;99.90;;;;;;5111974;28;20050;-64
2023/01/29 04:39:53;;;;;;;32.05;23.33;;;4.20;99.90;;;;;;5112070;28;20113;-64
2023/01/29 04:43:06;;;;;;;31.83;22.50;;;4.20;99.90;;;;;;5112022;28;20128;-64
2023/01/29 04:46:02;;;;;;;30.90;22.50;;;4.20;99.90;;;;;;4992724;28;20046;-64
2023/01/29 04:48:57;;;;;;;32.38;21.92;;;4.20;99.90;;;;;;5110525;28;20051;-64
2023/01/29 04:51:43;;;;;;;33.70;22.70;;;4.20;99.90;;;;;;5111281;28;20506;-63
2023/01/29 04:54:19;;;;;;;31.52;20.75;;;4.20;99.90;;;;;;5111542;28;20044;-64
2023/01/29 04:57:04;;;;;;;33.85;22.77;;;4.20;99.90;;;;;;5111645;28;20086;-64
2023/01/29 04:59:35;;;;;;;35.88;21.67;;;4.30;99.90;;;;;;5111847;28;20055;-64
2023/01/29 05:02:02;;;;;;;35.80;23.33;;;4.20;99.90;;;;;;5111584;28;20484;-64
2023/01/29 05:04:31;;;;;;;29.95;21.92;;;4.20;99.90;;;;;;5111867;28;20112;-64
2023/01/29 05:07:01;;;;;;;34.65;23.73;;;4.20;99.90;;;;;;5111212;28;20059;-64
2023/01/29 05:09:26;;;;;;;33.05;23.17;;;4.20;99.90;;;;;;5111739;28;20051;-64
2023/01/29 05:11:53;;;;;;;34.50;22.88;;;4.20;99.90;;;;;;5111367;28;20173;-64
2023/01/29 05:14:21;;;;;;;33.20;22.55;;;4.20;99.90;;;;;;5111545;28;20056;-64
2023/01/29 05:16:51;;;;;;;31.17;24.20;;;4.20;99.90;;;;;;5093286;28;20062;-64
2023/01/29 05:19:16;;;;;;;33.80;22.15;;;4.30;99.90;;;;;;5111544;28;20229;-65
2023/01/29 05:21:48;;;;;;;31.23;22.60;;;4.20;99.90;;;;;;5111531;28;20043;-64
2023/01/29 05:24:18;;;;;;;32.13;23.67;;;4.20;99.90;;;;;;5111317;28;20048;-65
2023/01/29 05:29:31;;;;;;;30.70;23.50;;;4.20;99.90;;;;;;5111403;28;20432;-64
2023/01/29 05:31:57;;;;;;;38.10;23.80;;;4.20;99.90;;;;;;5095657;28;20075;-64
2023/01/29 05:34:23;;;;;;;32.17;22.38;;;4.20;99.90;;;;;;5115365;28;20044;-64
2023/01/29 05:36:49;;;;;;;35.33;23.60;;;4.20;99.90;;;;;;5097171;28;20531;-64
2023/01/29 05:39:15;;;;;;;32.97;22.90;;;4.20;99.90;;;;;;5114867;28;20165;-64
2023/01/29 05:41:41;;;;;;;34.60;23.42;;;4.20;99.90;;;;;;5096854;28;20477;-65
2023/01/29 05:44:08;;;;;;;31.35;22.08;;;4.20;99.90;;;;;;5114452;28;20349;-65
2023/01/29 05:46:34;;;;;;;30.27;22.70;;;4.20;99.90;;;;;;5079896;28;20056;-64
2023/01/29 05:48:59;;;;;;;30.00;21.50;;;4.10;99.90;;;;;;5114121;28;20493;-65
2023/01/29 05:51:25;;;;;;;33.35;23.58;;;4.20;99.90;;;;;;5114588;28;20101;-65
2023/01/29 05:53:51;;;;;;;34.45;23.17;;;4.40;99.90;;;;;;5115056;28;20036;-64
2023/01/29 05:56:16;;;;;;;31.42;22.55;;;4.20;99.90;;;;;;5114123;28;20078;-64
2023/01/29 05:58:42;;;;;;;32.15;22.08;;;4.20;99.90;;;;;;5114521;28;20040;-64
2023/01/29 06:01:10;;;;;;;31.48;21.73;;;4.10;99.90;;;;;;5114352;28;20412;-66
2023/01/29 06:03:36;;;;;;;34.05;22.88;;;4.10;99.90;;;;;;5115016;28;20073;-64
2023/01/29 06:06:01;;;;;;;30.92;22.13;;;4.10;99.90;;;;;;5114357;28;20043;-64
2023/01/29 06:08:27;;;;;;;28.05;21.25;;;4.10;99.90;;;;;;5114572;28;20092;-64
2023/01/29 06:10:53;;;;;;;30.70;21.17;;;4.10;99.90;;;;;;5114508;28;20051;-64
2023/01/29 06:13:19;;;;;;;29.38;21.15;;;4.10;99.90;;;;;;5096190;28;20054;-64
2023/01/29 06:15:44;;;;;;;28.60;21.05;;;4.30;99.90;;;;;;5096351;28;20043;-64
2023/01/29 06:18:10;;;;;;;34.20;20.10;;;4.20;99.90;;;;;;5114402;28;20130;-64
2023/01/29 06:20:36;;;;;;;29.83;20.88;;;4.20;99.90;;;;;;5114604;28;20043;-64
2023/01/29 06:23:02;;;;;;;27.35;20.63;;;4.10;99.90;;;;;;5113965;28;20132;-64
2023/01/29 06:25:28;;;;;;;29.48;20.35;;;4.10;99.90;;;;;;5114404;28;20039;-64
2023/01/29 06:27:53;;;;;;;31.77;21.13;;;4.10;99.90;;;;;;5096347;28;20054;-64
2023/01/29 06:30:19;;;;;;;30.27;20.83;;;4.10;99.90;;;;;;5113970;28;20031;-65
2023/01/29 06:32:45;;;;;;;28.27;20.90;;;4.10;99.90;;;;;;5114500;28;20362;-64
2023/01/29 06:35:10;;;;;;;30.42;20.77;;;4.10;99.90;;;;;;5114203;28;20055;-65
2023/01/29 06:37:36;;;;;;;30.67;22.65;;;4.20;99.90;;;;;;5096191;28;20055;-64
2023/01/29 06:40:02;;;;;;;33.60;22.95;;;4.10;99.90;;;;;;5113786;28;20131;-65
2023/01/29 06:42:28;;;;;;;35.47;23.08;;;4.10;99.90;;;;;;5113234;28;20052;-64
2023/01/29 06:44:55;;;;;;;35.85;23.35;;;4.10;99.90;;;;;;5113966;28;20043;-64
2023/01/29 06:47:26;;;;;;;37.83;25.00;;;4.10;99.90;;;;;;5113554;28;20108;-64
2023/01/29 06:49:52;;;;;;;38.38;25.42;;;4.10;99.90;;;;;;5095473;28;20160;-64
2023/01/29 06:52:18;;;;;;;38.50;25.35;;;4.20;99.90;;;;;;5094962;28;20177;-64
2023/01/29 06:54:43;;;;;;;36.20;26.00;;;4.10;99.90;;;;;;5113742;28;20055;-65
2023/01/29 06:57:09;;;;;;;39.53;26.90;;;4.10;99.90;;;;;;5113524;28;20377;-64
2023/01/29 06:59:35;;;;;;;39.58;26.77;;;4.10;99.90;;;;;;5095758;28;20047;-64
2023/01/29 07:02:02;;;;;;;38.83;26.42;;;4.10;99.90;;;;;;5078794;28;20043;-64
2023/01/29 07:04:27;;;;;;;36.58;26.10;;;4.10;99.90;;;;;;5095360;28;20047;-64
2023/01/29 07:06:53;;;;;;;41.22;27.27;;;4.10;99.90;;;;;;5113821;28;20508;-64
2023/01/29 07:09:19;;;;;;;41.22;27.80;;;4.10;99.90;;;;;;5113229;28;20046;-64
2023/01/29 07:11:44;;;;;;;39.13;27.02;;;4.20;99.90;;;;;;5113877;28;20465;-64
2023/01/29 07:14:10;;;;;;;41.17;25.77;;;4.30;99.90;;;;;;5113047;28;20055;-65
2023/01/29 07:16:36;;;;;;;38.38;25.90;;;4.10;99.90;;;;;;5113295;28;20048;-65
2023/01/29 07:19:02;;;;;;;36.60;27.52;;;4.10;99.90;;;;;;5113430;28;20044;-65
2023/01/29 07:21:28;;;;;;;37.53;27.15;;;4.10;99.90;;;;;;5094645;28;20529;-66
2023/01/29 07:23:54;;;;;;;34.75;25.85;;;4.10;99.90;;;;;;5112953;28;20080;-65
2023/01/29 07:26:20;;;;;;;35.67;25.52;;;4.10;99.90;;;;;;5094899;28;20173;-66
2023/01/29 07:28:45;;;;;;;39.50;27.33;;;4.10;99.90;;;;;;5113171;28;20439;-66
2023/01/29 07:31:13;;;;;;;37.90;25.60;;;4.10;99.90;;;;;;5077613;28;20439;-66
2023/01/29 07:33:41;;;;;;;36.78;24.35;;;4.10;99.90;;;;;;5113275;28;20058;-66
2023/01/29 07:36:08;;;;;;;38.45;24.75;;;4.10;99.90;;;;;;5112684;28;20047;-68
2023/01/29 07:38:34;;;;;;;36.20;26.05;;;4.20;99.90;;;;;;5094882;28;20044;-65
2023/01/29 07:41:00;;;;;;;36.92;24.65;;;4.20;99.90;;;;;;5112568;28;20050;-66
2023/01/29 07:43:25;;;;;;;38.60;26.23;;;4.20;99.90;;;;;;5112412;28;20078;-66
2023/01/29 07:45:51;;;;;;;39.40;27.70;;;4.20;99.90;;;;;;5112721;28;20452;-66
2023/01/29 07:48:17;;;;;;;43.50;27.67;;;4.10;99.90;;;;;;5112210;28;20055;-66
2023/01/29 07:50:43;;;;;;;38.05;26.23;;;4.20;99.90;;;;;;5112993;28;20086;-66
2023/01/29 07:53:14;;;;;;;40.47;28.25;;;4.20;99.90;;;;;;5112062;28;20094;-67
2023/01/29 07:55:40;;;;;;;37.67;28.55;;;4.20;99.90;;;;;;5112516;28;20044;-66
2023/01/29 07:58:05;;;;;;;45.92;30.98;;;4.20;99.90;;;;;;5112680;28;20047;-65
2023/01/29 08:00:31;;;;;;;41.20;29.88;;;4.20;99.90;;;;;;5112357;28;20647;-66
2023/01/29 08:03:09;;;;;;;42.05;30.25;;;4.10;99.90;;;;;;5112833;28;20051;-65
2023/01/29 08:05:35;;;;;;;41.55;29.70;;;4.20;99.90;;;;;;5112221;28;20052;-66
2023/01/29 08:08:00;;;;;;;42.17;30.55;;;4.20;99.90;;;;;;5112596;28;20046;-65
2023/01/29 08:10:27;;;;;;;41.95;28.95;;;4.20;99.90;;;;;;5112208;28;20120;-65
2023/01/29 08:12:57;;;;;;;40.88;29.88;;;4.20;99.90;;;;;;5112257;28;20051;-66
2023/01/29 08:15:24;;;;;;;40.70;31.05;;;4.20;99.90;;;;;;5112174;28;20039;-66
2023/01/29 08:17:50;;;;;;;42.05;29.75;;;4.10;99.90;;;;;;5094285;28;20051;-65
2023/01/29 08:20:16;;;;;;;41.58;29.52;;;4.20;99.90;;;;;;5111944;28;20039;-65
2023/01/29 08:22:42;;;;;;;40.97;29.73;;;4.20;99.90;;;;;;5094144;28;20097;-65
2023/01/29 08:25:08;;;;;;;45.08;31.92;;;4.20;99.90;;;;;;5094442;28;20082;-66
2023/01/29 08:27:34;;;;;;;41.17;30.60;;;4.20;99.90;;;;;;5111704;28;20675;-64
2023/01/29 08:29:59;;;;;;;42.92;30.30;;;4.20;99.90;;;;;;5112185;28;20036;-65
2023/01/29 08:32:25;;;;;;;44.78;32.95;;;4.30;99.90;;;;;;5093710;28;20119;-65
2023/01/29 08:34:51;;;;;;;44.10;32.67;;;4.20;99.90;;;;;;5111586;28;20136;-65
2023/01/29 08:37:17;;;;;;;43.42;33.10;;;4.20;99.90;;;;;;5111711;28;20047;-67
2023/01/29 08:39:42;;;;;;;47.45;35.22;;;4.20;99.90;;;;;;5111656;28;20081;-65
2023/01/29 08:42:08;;;;;;;45.83;32.75;;;4.20;99.90;;;;;;5112028;28;20481;-65
2023/01/29 08:44:34;;;;;;;44.35;33.67;;;4.20;99.90;;;;;;5093098;28;20047;-64
2023/01/29 08:46:59;;;;;;;48.40;32.92;;;4.10;99.90;;;;;;5093941;28;20062;-63
2023/01/29 08:49:25;;;;;;;47.10;33.38;;;4.20;99.90;;;;;;5111437;28;20503;-64
2023/01/29 08:51:52;;;;;;;49.33;35.60;;;4.20;99.90;;;;;;5112055;28;20047;-65
2023/01/29 08:54:18;;;;;;;46.08;32.75;;;4.20;99.90;;;;;;5111855;28;20118;-68
2023/01/29 08:56:44;;;;;;;45.40;33.25;;;4.20;99.90;;;;;;5077048;28;20520;-66
2023/01/29 08:59:10;;;;;;;46.13;33.17;;;4.20;99.90;;;;;;5112023;28;20400;-65
2023/01/29 09:01:36;;;;;;;42.72;31.67;;;4.20;99.90;;;;;;5076496;28;20047;-65
2023/01/29 09:04:01;;;;;;;41.85;31.15;;;4.20;99.90;;;;;;5112014;28;20040;-65
2023/01/29 09:06:27;;;;;;;42.80;33.35;;;4.30;99.90;;;;;;5115388;28;20051;-65
2023/01/29 09:08:53;;;;;;;47.53;33.63;;;4.20;99.90;;;;;;5115863;28;20131;-67
2023/01/29 09:11:18;;;;;;;46.60;33.85;;;4.30;99.90;;;;;;5063710;28;20052;-65
2023/01/29 09:13:44;;;;;;;42.20;29.70;;;4.30;99.90;;;;;;5097384;28;20047;-65
2023/01/29 09:16:10;;;;;;;44.70;30.67;;;4.30;99.90;;;;;;5115897;28;20134;-65
2023/01/29 09:18:35;;;;;;;43.83;30.33;;;4.40;99.90;;;;;;5115519;28;20040;-65
2023/01/29 09:21:01;;;;;;;44.33;27.00;;;4.40;99.90;;;;;;5115723;28;20044;-66
2023/01/29 09:23:29;;;;;;;49.70;32.03;;;4.30;99.90;;;;;;5115361;28;20067;-65
2023/01/29 09:25:55;;;;;;;48.53;32.85;;;4.30;99.90;;;;;;5115619;28;20099;-66
2023/01/29 09:28:20;;;;;;;46.72;32.40;;;4.40;99.90;;;;;;5097543;28;20138;-65
2023/01/29 09:30:46;;;;;;;43.08;29.95;;;4.40;99.90;;;;;;5115186;28;20066;-65
2023/01/29 09:33:12;;;;;;;43.53;30.20;;;4.40;99.90;;;;;;5115333;28;20047;-66
2023/01/29 09:35:42;;;;;;;41.97;28.95;;;4.40;99.90;;;;;;5115036;28;20044;-68
2023/01/29 09:38:09;;;;;;;43.45;30.73;;;4.50;99.90;;;;;;5097469;28;20047;-65
2023/01/29 09:40:41;;;;;;;43.38;30.45;;;4.60;99.90;;;;;;5114954;28;20040;-65
2023/01/29 09:43:16;;;;;;;44.10;30.02;;;4.50;99.90;;;;;;5115393;28;20139;-65
2023/01/29 09:45:57;;;;;;;42.63;29.48;;;4.60;99.90;;;;;;5096833;28;20088;-65
2023/01/29 09:48:27;;;;;;;38.63;27.30;;;4.60;99.90;;;;;;5096879;28;20078;-64
2023/01/29 09:50:54;;;;;;;40.95;29.55;;;4.60;99.90;;;;;;5115394;28;20052;-65
2023/01/29 09:53:44;;;;;;;42.35;28.65;;;4.60;99.90;;;;;;5115013;28;20055;-65
2023/01/29 09:56:36;;;;;;;45.58;28.85;;;4.70;99.90;;;;;;5097043;28;20054;-65
2023/01/29 09:59:02;;;;;;;38.67;27.48;;;4.60;99.90;;;;;;5110008;28;20109;-65
2023/01/29 10:01:54;;;;;;;40.83;28.33;;;4.70;99.90;;;;;;5079525;28;20082;-68
2023/01/29 10:04:55;;;;;;;41.67;27.73;;;4.70;99.90;;;;;;5114905;28;20051;-66
2023/01/29 10:07:20;;;;;;;42.90;28.45;;;4.60;99.90;;;;;;5114914;28;20127;-66
2023/01/29 10:10:15;;;;;;;42.22;29.90;;;4.60;99.90;;;;;;5114469;28;20083;-65
2023/01/29 10:13:03;;;;;;;46.60;30.40;;;4.70;99.90;;;;;;5093590;28;20084;-66
2023/01/29 10:15:38;;;;;;;42.70;29.48;;;4.70;99.90;;;;;;5096656;28;20047;-67
2023/01/29 10:18:37;;;;;;;41.05;29.45;;;4.80;99.90;;;;;;5113640;28;20122;-63
2023/01/29 10:21:12;;;;;;;46.33;30.80;;;4.80;99.90;;;;;;5114655;28;20040;-65
2023/01/29 10:23:51;;;;;;;44.42;29.52;;;4.80;99.90;;;;;;5114196;28;20083;-65
2023/01/29 10:26:23;;;;;;;46.85;30.83;;;4.80;99.90;;;;;;5096187;28;20095;-64
2023/01/29 10:28:51;;;;;;;44.10;29.63;;;4.80;99.90;;;;;;5096115;28;20039;-65
2023/01/29 10:31:28;;;;;;;47.38;30.85;;;4.80;99.90;;;;;;5114406;28;20043;-65
2023/01/29 10:33:59;;;;;;;45.15;30.70;;;4.90;99.90;;;;;;5113919;28;20086;-64
2023/01/29 10:36:41;;;;;;;46.40;30.42;;;4.90;99.90;;;;;;5114309;28;20047;-63
2023/01/29 10:39:19;;;;;;;44.10;29.27;;;4.80;99.90;;;;;;5114309;28;20453;-63
2023/01/29 10:42:04;;;;;;;42.65;27.83;;;4.80;99.90;;;;;;5095391;28;20047;-63
2023/01/29 10:44:54;;;;;;;48.47;26.83;;;4.80;99.90;;;;;;5114039;28;20143;-64
2023/01/29 10:47:58;;;;;;;46.53;29.98;;;4.80;99.90;;;;;;5114104;28;20372;-63
2023/01/29 10:50:39;;;;;;;39.17;27.17;;;4.80;99.90;;;;;;5113933;28;20055;-64
2023/01/29 10:53:18;;;;;;;46.97;32.50;;;4.80;99.90;;;;;;5095117;28;20040;-64
2023/01/29 10:56:02;;;;;;;44.83;31.27;;;4.90;99.90;;;;;;5113520;28;20405;-66
2023/01/29 10:58:46;;;;;;;45.10;29.92;;;5.00;99.90;;;;;;5111179;28;20054;-65
2023/01/29 11:01:12;;;;;;;46.60;28.98;;;4.90;99.90;;;;;;5112535;28;20051;-64
2023/01/29 11:03:38;;;;;;;37.60;24.38;;;5.00;99.90;;;;;;5094757;28;20473;-65
2023/01/29 11:06:15;;;;;;;46.13;31.45;;;5.00;99.90;;;;;;5095085;28;20043;-66
2023/01/29 11:09:03;;;;;;;44.22;28.52;;;5.00;99.90;;;;;;5094904;28;20399;-65
2023/01/29 11:11:57;;;;;;;47.05;30.73;;;4.90;99.90;;;;;;5095384;28;20460;-65
2023/01/29 11:14:30;;;;;;;43.13;28.98;;;5.00;99.90;;;;;;5108498;28;20063;-65
2023/01/29 11:16:56;;;;;;;44.53;29.63;;;4.90;99.90;;;;;;5113437;28;20043;-66
2023/01/29 11:19:40;;;;;;;45.70;30.75;;;4.90;99.90;;;;;;5061095;28;20054;-64
2023/01/29 11:22:13;;;;;;;44.03;29.75;;;4.90;99.90;;;;;;5113351;28;20039;-64
2023/01/29 11:24:38;;;;;;;45.92;30.27;;;4.90;99.90;;;;;;5112636;28;20059;-66
2023/01/29 11:27:24;;;;;;;49.08;30.77;;;4.90;99.90;;;;;;5113216;28;20044;-64
2023/01/29 11:29:54;;;;;;;45.00;27.65;;;5.00;99.90;;;;;;5112520;28;20051;-64
2023/01/29 11:32:22;;;;;;;42.53;28.33;;;5.00;99.90;;;;;;5112935;28;20130;-64
2023/01/29 11:35:19;;;;;;;45.17;28.15;;;5.10;99.90;;;;;;5112404;28;20044;-64
2023/01/29 11:37:46;;;;;;;43.25;29.13;;;4.90;99.90;;;;;;5112756;28;20152;-64
2023/01/29 11:40:17;;;;;;;41.42;27.38;;;5.00;99.90;;;;;;5112953;28;20079;-65
2023/01/29 11:42:44;;;;;;;47.88;30.73;;;5.00;99.90;;;;;;5112548;28;20051;-63
2023/01/29 11:45:19;;;;;;;44.97;28.70;;;5.00;99.90;;;;;;5112613;28;20044;-64
2023/01/29 11:47:50;;;;;;;48.42;29.90;;;4.90;99.90;;;;;;5112816;28;20050;-64
2023/01/29 11:50:25;;;;;;;49.85;29.65;;;5.00;99.90;;;;;;5112485;28;20051;-64
2023/01/29 11:52:51;;;;;;;49.65;32.20;;;5.00;99.90;;;;;;5111161;28;20206;-66
2023/01/29 11:55:24;;;;;;;48.28;32.15;;;5.00;99.90;;;;;;5093742;28;20055;-63
2023/01/29 11:58:16;;;;;;;40.95;25.45;;;4.90;99.90;;;;;;5112152;28;20035;-64
2023/01/29 12:00:47;;;;;;;40.80;27.00;;;5.00;99.90;;;;;;5112154;28;20046;-66
2023/01/29 12:03:15;;;;;;;47.50;31.23;;;5.00;99.90;;;;;;5112595;28;20059;-64
2023/01/29 12:05:57;;;;;;;45.17;29.25;;;5.00;99.90;;;;;;5093555;28;20082;-66
2023/01/29 12:08:24;;;;;;;45.50;29.95;;;5.00;99.90;;;;;;5092096;28;20093;-64
2023/01/29 12:10:50;;;;;;;46.38;28.40;;;5.10;99.90;;;;;;5111892;28;20102;-63
2023/01/29 12:13:26;;;;;;;42.35;27.17;;;5.10;99.90;;;;;;5112250;28;20513;-62
2023/01/29 12:16:15;;;;;;;39.60;26.10;;;5.00;99.90;;;;;;5112069;28;20082;-63
2023/01/29 12:18:47;;;;;;;39.85;25.48;;;5.10;99.90;;;;;;5094427;28;20554;-64
2023/01/29 12:21:31;;;;;;;37.58;26.92;;;5.10;99.90;;;;;;5110203;28;20054;-64
2023/01/29 12:24:30;;;;;;;39.90;25.17;;;5.10;99.90;;;;;;5092989;28;20100;-68
2023/01/29 12:27:29;;;;;;;40.63;25.75;;;5.00;99.90;;;;;;5110976;28;20047;-65
2023/01/29 12:30:26;;;;;;;37.05;25.27;;;5.00;99.90;;;;;;5111818;28;20077;-63
2023/01/29 12:33:26;;;;;;;36.70;24.35;;;5.10;99.90;;;;;;5093507;28;20130;-63
2023/01/29 12:36:17;;;;;;;37.45;24.48;;;5.10;99.90;;;;;;5111732;28;20052;-63
2023/01/29 12:38:44;;;;;;;37.47;23.95;;;5.10;99.90;;;;;;5112324;28;20054;-64
2023/01/29 12:41:44;;;;;;;37.35;24.27;;;5.10;99.90;;;;;;5075958;28;20043;-63
2023/01/29 12:44:19;;;;;;;33.72;21.67;;;5.10;99.90;;;;;;5109678;28;20081;-66
2023/01/29 12:46:58;;;;;;;36.08;21.98;;;5.20;99.90;;;;;;5112101;28;20428;-66
2023/01/29 12:49:31;;;;;;;33.20;21.63;;;5.20;99.90;;;;;;5111454;28;20416;-63
2023/01/29 12:52:17;;;;;;;29.45;20.58;;;5.20;99.90;;;;;;5093107;28;20142;-64
2023/01/29 12:54:52;;;;;;;28.33;18.10;;;5.20;99.90;;;;;;5111322;28;20059;-63
2023/01/29 12:57:33;;;;;;;27.90;18.80;;;5.30;99.90;;;;;;5111558;28;20043;-64
2023/01/29 13:00:13;;;;;;;29.80;19.10;;;5.30;99.90;;;;;;5111644;28;20044;-64
2023/01/29 13:02:55;;;;;;;29.88;19.92;;;5.30;99.90;;;;;;5111573;28;20536;-65
2023/01/29 13:05:43;;;;;;;29.55;21.20;;;5.30;99.90;;;;;;5111659;28;20469;-66
2023/01/29 13:08:18;;;;;;;29.73;19.40;;;5.30;99.90;;;;;;5111405;28;20135;-63
2023/01/29 13:10:51;;;;;;;29.45;19.23;;;5.40;99.90;;;;;;5093683;28;20043;-63
2023/01/29 13:13:31;;;;;;;31.52;20.27;;;5.30;99.90;;;;;;5093768;28;20126;-64
2023/01/29 13:15:59;;;;;;;27.13;18.65;;;5.30;99.90;;;;;;5111497;28;20421;-66
2023/01/29 13:18:41;;;;;;;30.80;20.33;;;5.30;99.90;;;;;;5111637;28;20050;-63
2023/01/29 13:21:18;;;;;;;30.13;21.15;;;5.30;99.90;;;;;;5092789;28;20059;-62
2023/01/29 13:23:50;;;;;;;30.48;19.25;;;5.30;99.90;;;;;;5111714;28;20397;-63
2023/01/29 13:26:20;;;;;;;32.67;22.00;;;5.30;99.90;;;;;;5111035;28;20422;-63
2023/01/29 13:28:47;;;;;;;30.92;19.88;;;5.30;99.90;;;;;;5093010;28;20047;-63
2023/01/29 13:31:30;;;;;;;32.55;19.83;;;5.30;99.90;;;;;;5110890;28;20097;-63